Date,TemperatureHighF,TemperatureAvgF,TemperatureLowF,DewpointHighF,DewpointAvgF,DewpointLowF,HumidityHigh,HumidityAvg,HumidityLow,PressureMaxIn,PressureMinIn,WindSpeedMaxMPH,WindSpeedAvgMPH,GustSpeedMaxMPH,PrecipitationSumIn
2012-1-1,36,30,27,32,28,24,96,89,78,0.00,40.00,6,1,7,0.00
2012-1-2,32,28,22,29,25,20,92,88,78,0.00,40.00,3,2,9,0.00
2012-1-3,38,30,22,30,26,20,92,86,69,0.00,40.00,3,2,7,0.00
2012-1-4,38,34,29,35,31,27,96,90,81,0.00,40.00,3,1,7,0.00
2012-1-5,49,37,31,36,29,20,96,77,31,0.00,40.00,6,3,12,0.00
2012-1-6,44,34,30,29,26,23,84,72,46,0.00,40.00,6,3,13,0.00
2012-1-7,33,30,25,28,25,22,88,83,72,0.00,40.00,5,2,8,0.00
2012-1-8,41,32,27,28,26,25,92,80,59,0.00,40.00,6,2,9,0.00
2012-1-9,36,32,26,31,29,24,92,86,78,0.00,40.00,5,2,9,0.00
2012-1-10,48,35,23,30,21,15,92,59,28,0.00,40.00,7,2,15,0.00
2012-1-11,32,22,18,18,14,10,84,71,49,0.00,40.00,5,2,7,0.00
2012-1-12,28,21,15,16,13,10,87,72,57,0.00,40.00,5,2,7,0.00
2012-1-13,28,20,13,17,14,10,87,76,60,0.00,40.00,5,2,7,0.00
2012-1-14,32,24,17,24,19,14,91,80,66,0.00,40.00,5,2,10,0.00
2012-1-15,31,24,17,22,18,14,87,76,63,0.00,40.00,9,3,10,0.00
2012-1-16,28,21,14,19,16,11,91,80,65,0.00,40.00,6,2,13,0.00
2012-1-17,31,26,21,28,23,18,95,89,84,0.00,40.00,3,1,7,0.00
2012-1-18,24,19,15,22,17,12,91,89,83,0.00,40.00,6,2,9,0.00
2012-1-19,17,14,11,12,10,8,87,83,76,0.00,40.00,5,2,8,0.00
2012-1-20,19,16,12,16,13,9,87,85,77,0.00,40.00,3,1,7,0.00
2012-1-21,31,25,19,29,21,16,92,84,71,0.00,40.00,5,2,9,0.00
2012-1-22,31,26,19,29,24,17,95,92,91,0.00,40.00,9,2,13,0.00
2012-1-23,38,25,17,26,20,14,92,83,56,0.00,40.00,7,3,13,0.00
2012-1-24,30,25,22,27,23,20,92,91,88,0.00,40.00,3,1,6,0.00
2012-1-25,39,35,30,35,32,28,92,89,82,0.00,40.00,3,2,7,0.00
2012-1-26,44,36,28,33,23,14,92,62,33,0.00,40.00,12,5,24,0.00
2012-1-27,42,28,22,20,17,15,77,62,41,0.00,40.00,12,4,17,0.00
2012-1-28,31,27,19,27,21,16,87,78,68,0.00,40.00,6,2,9,0.00
2012-1-29,42,34,27,35,30,24,96,85,59,0.00,40.00,6,2,9,0.00
2012-1-30,51,41,34,35,29,25,92,66,38,0.00,40.00,7,4,14,0.00
2012-1-31,46,36,30,30,28,26,84,72,51,0.00,40.00,9,3,17,0.00
2012-2-1,48,38,33,37,28,19,96,68,31,0.00,40.00,10,3,18,0.00
2012-2-2,42,33,26,24,22,20,81,64,44,0.00,40.00,9,3,17,0.00
2012-2-3,42,28,18,24,21,16,91,74,48,0.00,40.00,5,2,7,0.00
2012-2-4,44,32,22,25,23,19,88,72,44,0.00,40.00,7,2,9,0.00
2012-2-5,41,29,19,24,21,17,91,75,50,0.00,40.00,6,3,7,0.00
2012-2-6,40,26,16,24,20,14,91,76,52,0.00,40.00,5,2,6,0.00
2012-2-7,45,31,20,26,22,17,91,72,44,0.00,40.00,3,1,7,0.00
2012-2-8,40,35,31,33,30,25,92,80,69,0.00,40.00,5,2,7,0.00
2012-2-9,41,36,34,33,31,29,88,80,67,0.00,40.00,5,1,8,0.00
2012-2-10,39,35,33,35,33,31,92,91,85,0.00,40.00,2,1,5,0.00
2012-2-11,53,39,33,38,34,31,96,84,50,0.00,40.00,3,1,10,0.00
2012-2-12,42,35,29,32,30,27,95,81,61,0.00,40.00,9,3,13,0.00
2012-2-13,53,39,34,36,31,26,92,73,39,0.00,40.00,6,2,10,0.00
2012-2-14,37,33,28,30,28,25,92,83,75,0.00,40.00,6,3,9,0.00
2012-2-15,53,36,27,28,25,23,92,68,30,0.00,40.00,7,4,10,0.00
2012-2-16,39,32,27,31,27,24,92,80,69,0.00,40.00,3,1,7,0.00
2012-2-17,38,32,26,34,29,24,95,89,75,0.00,40.00,3,0,5,0.00
2012-2-18,40,34,28,34,31,27,96,89,78,0.00,40.00,6,2,9,0.00
2012-2-19,45,37,32,32,26,19,92,65,39,0.00,40.00,7,4,13,0.00
2012-2-20,45,37,30,29,24,21,81,60,39,0.00,40.00,7,3,12,0.00
2012-2-21,50,38,30,39,33,27,92,81,53,0.00,40.00,10,3,15,0.00
2012-2-22,48,39,34,38,32,19,92,78,32,0.00,40.00,12,4,21,0.00
2012-2-23,51,39,29,31,25,18,92,62,28,0.00,40.00,9,4,14,0.00
2012-2-24,44,36,33,34,29,24,92,74,50,0.00,40.00,6,3,10,0.00
2012-2-25,45,38,32,33,24,18,92,60,33,0.00,40.00,9,4,22,0.00
2012-2-26,44,35,29,29,22,18,92,61,39,0.00,40.00,12,3,14,0.00
2012-2-27,40,29,23,27,22,19,92,76,42,0.00,40.00,6,2,7,0.00
2012-2-28,35,28,20,28,21,16,92,74,49,0.00,40.00,12,2,16,0.00
2012-2-29,37,31,28,29,28,24,92,85,66,0.00,40.00,7,2,10,0.00
2012-3-1,46,34,22,25,21,17,92,61,30,0.00,40.00,13,5,21,0.00
2012-3-2,50,38,29,29,24,19,72,57,40,0.00,40.00,9,4,15,0.00
2012-3-3,52,40,33,38,33,29,88,75,54,0.00,40.00,5,2,10,0.00
2012-3-4,60,44,33,35,31,28,92,64,33,0.00,40.00,12,4,17,0.00
2012-3-5,54,42,36,34,27,17,72,56,30,0.00,40.00,12,6,24,0.00
2012-3-6,47,39,29,19,16,13,63,40,26,0.00,40.00,9,5,14,0.00
2012-3-7,54,39,27,24,18,13,63,45,27,0.00,40.00,12,5,17,0.00
2012-3-8,51,37,26,27,25,23,88,63,35,0.00,40.00,7,4,13,0.00
2012-3-9,53,39,30,32,29,26,88,68,42,0.00,40.00,7,3,13,0.00
2012-3-10,56,44,36,37,34,31,85,68,41,0.00,40.00,6,4,14,0.00
2012-3-11,53,42,32,37,29,19,92,64,29,0.00,40.00,10,4,22,0.00
2012-3-12,36,32,27,33,28,22,96,85,69,0.00,40.00,13,4,22,0.00
2012-3-13,46,37,32,35,28,19,96,72,36,0.00,40.00,9,4,17,0.00
2012-3-14,35,32,29,31,28,24,92,84,66,0.00,40.00,6,2,7,0.00
2012-3-15,43,37,33,39,34,31,96,90,85,0.00,40.00,5,2,8,0.00
2012-3-16,57,43,34,38,29,22,92,65,25,0.00,40.00,6,4,12,0.00
2012-3-17,52,40,33,38,28,17,92,65,30,0.00,40.00,7,3,14,0.00
2012-3-18,52,37,28,28,24,21,81,60,30,0.00,40.00,9,4,15,0.00
2012-3-19,53,40,31,23,17,12,63,43,20,0.00,40.00,9,4,14,0.00
2012-3-20,40,36,33,34,31,23,92,80,58,0.00,40.00,6,3,9,0.00
2012-3-21,46,39,31,31,25,16,92,63,34,0.00,40.00,5,3,12,0.00
2012-3-22,52,40,31,32,26,17,92,62,26,0.00,40.00,6,2,13,0.00
2012-3-23,53,39,29,29,25,21,88,61,28,0.00,40.00,9,4,12,0.00
2012-3-24,60,41,29,28,25,23,84,58,27,0.00,40.00,6,3,13,0.00
2012-3-25,59,43,32,33,30,26,81,60,34,0.00,40.00,7,4,12,0.00
2012-3-26,58,45,37,37,31,26,85,61,35,0.00,40.00,10,4,15,0.00
2012-3-27,42,39,35,39,33,28,92,81,66,0.00,40.00,9,3,12,0.00
2012-3-28,55,45,39,43,35,29,92,71,36,0.00,40.00,12,3,20,0.00
2012-3-29,45,42,39,42,38,33,92,87,70,0.00,40.00,5,2,9,0.00
2012-3-30,52,44,38,40,33,18,92,70,27,0.00,40.00,13,3,21,0.00
2012-3-31,42,38,33,37,32,27,92,80,59,0.00,40.00,6,2,8,0.00
2012-4-1,56,42,34,35,28,21,92,64,25,0.00,40.00,9,4,17,0.00
2012-4-2,54,42,32,32,28,26,85,61,35,0.00,40.00,13,5,20,0.00
2012-4-3,56,45,36,35,30,22,88,58,36,0.00,40.00,12,4,15,0.00
2012-4-4,55,46,37,27,22,18,64,41,23,0.00,40.00,13,5,23,0.00
2012-4-5,57,42,32,35,25,21,88,54,28,0.00,40.00,8,4,15,0.00
2012-4-6,48,40,36,35,32,28,92,73,45,0.00,40.00,7,4,15,0.00
2012-4-7,55,42,30,30,26,22,92,59,28,0.00,40.00,10,5,14,0.00
2012-4-8,61,46,30,30,25,21,84,50,21,0.00,40.00,6,3,13,0.00
2012-4-9,69,53,36,32,29,26,72,43,23,0.00,40.00,9,4,13,0.00
2012-4-10,67,54,41,37,35,31,70,49,31,0.00,40.00,10,4,14,0.00
2012-4-11,63,52,42,42,37,33,76,59,42,0.00,40.00,9,6,14,0.00
2012-4-12,62,50,39,39,35,31,85,60,30,0.00,40.00,14,6,16,0.00
2012-4-13,68,50,33,33,30,26,92,52,21,0.00,40.00,8,4,15,0.00
2012-4-14,65,51,37,37,31,27,75,48,29,0.00,40.00,14,7,24,0.00
2012-4-15,67,54,43,35,30,27,57,41,25,0.00,40.00,10,5,17,0.00
2012-4-16,58,49,44,42,36,29,82,61,43,0.00,40.00,7,3,15,0.00
2012-4-17,56,47,36,32,29,25,67,50,32,0.00,40.00,13,5,18,0.00
2012-4-18,58,47,38,43,35,30,82,63,41,0.00,40.00,7,4,14,0.00
2012-4-19,58,46,35,44,34,30,89,65,38,0.00,40.00,9,6,17,0.00
2012-4-20,65,52,41,44,35,28,89,59,27,0.00,40.00,6,4,15,0.00
2012-4-21,73,55,40,41,36,33,78,52,31,0.00,40.00,12,5,14,0.00
2012-4-22,82,63,44,47,43,39,85,52,29,0.00,40.00,9,4,15,0.00
2012-4-23,87,67,50,51,45,41,71,48,25,0.00,40.00,9,4,15,0.00
2012-4-24,73,62,54,49,44,41,68,52,41,0.00,40.00,9,5,17,0.00
2012-4-25,70,56,47,56,46,42,89,72,43,0.00,40.00,7,3,13,0.00
2012-4-26,57,51,44,50,39,26,89,67,33,0.00,40.00,9,5,21,0.00
2012-4-27,64,49,35,32,29,26,81,48,27,0.00,40.00,9,5,17,0.00
2012-4-28,72,54,43,41,33,-100,70,49,31,0.00,40.00,7,4,13,0.00
2012-4-29,75,57,42,43,39,36,82,54,29,0.00,40.00,7,4,18,0.00
2012-4-30,67,54,47,43,39,31,82,57,37,0.00,40.00,9,4,17,0.00
2012-5-1,63,50,38,35,30,27,82,49,28,0.00,40.00,9,4,16,0.00
2012-5-2,63,51,37,33,29,27,72,45,30,0.00,40.00,9,4,17,0.00
2012-5-3,53,48,42,45,39,27,92,74,36,0.00,40.00,5,2,10,0.00
2012-5-4,62,51,42,42,33,26,92,56,27,0.00,40.00,9,5,18,0.00
2012-5-5,62,49,39,30,26,-100,64,44,28,0.00,40.00,9,5,16,0.00
2012-5-6,67,52,35,36,31,27,78,47,26,0.00,40.00,9,5,15,0.00
2012-5-7,72,57,40,41,37,35,82,52,28,0.00,40.00,9,4,13,0.00
2012-5-8,79,62,45,47,41,37,76,49,28,0.00,40.00,7,4,13,0.00
2012-5-9,59,54,47,38,29,22,60,40,27,0.00,40.00,14,7,24,0.00
2012-5-10,63,49,37,31,25,20,54,40,29,0.00,40.00,10,5,18,0.00
2012-5-11,67,51,34,34,30,26,78,49,26,0.00,40.00,8,4,14,0.00
2012-5-12,75,53,39,37,31,-100,72,49,23,0.00,40.00,9,5,15,0.00
2012-5-13,84,63,43,46,40,34,73,45,23,0.00,40.00,7,4,13,0.00
2012-5-14,90,66,47,55,44,39,73,48,23,0.00,40.00,7,3,13,0.00
2012-5-15,89,68,51,49,44,37,68,45,21,0.00,40.00,9,5,18,0.00
2012-5-16,78,65,58,45,39,35,51,38,28,0.00,40.00,10,6,21,0.00
2012-5-17,71,56,44,41,36,25,79,48,25,0.00,40.00,12,6,20,0.00
2012-5-18,71,56,44,38,32,28,55,42,28,0.00,40.00,10,4,23,0.00
2012-5-19,77,55,41,42,32,-100,70,47,27,0.00,40.00,9,5,13,0.00
2012-5-20,72,62,51,51,44,38,74,53,40,0.00,40.00,10,4,13,0.00
2012-5-21,65,59,53,54,51,46,86,75,62,0.00,40.00,7,3,10,0.00
2012-5-22,64,56,48,46,40,37,79,58,36,0.00,40.00,6,3,10,0.00
2012-5-23,65,54,42,41,38,35,82,57,36,0.00,40.00,9,5,16,0.00
2012-5-24,70,55,43,43,39,35,76,57,34,0.00,40.00,7,4,15,0.00
2012-5-25,73,58,49,46,41,35,76,54,28,0.00,40.00,7,4,12,0.00
2012-5-26,76,60,49,44,39,37,65,48,26,0.00,40.00,7,3,14,0.00
2012-5-27,78,62,48,46,40,37,68,48,29,0.00,40.00,8,5,16,0.00
2012-5-28,74,60,48,44,40,37,68,49,34,0.00,40.00,8,4,14,0.00
2012-5-29,66,54,44,42,37,33,65,53,38,0.00,40.00,8,4,13,0.00
2012-5-30,76,69,58,49,45,39,60,42,35,0.00,40.00,6,4,12,0.00
2012-5-31,78,67,58,54,50,45,74,55,37,0.00,40.00,7,4,13,0.00
2012-6-1,81,67,57,58,51,45,74,57,42,0.00,40.00,7,4,14,0.00
2012-6-2,74,64,56,47,41,-100,59,47,36,0.00,40.00,8,5,23,0.00
2012-6-3,71,59,49,43,40,38,70,51,35,0.00,40.00,10,4,16,0.00
2012-6-4,57,54,49,53,47,39,89,79,54,0.00,40.00,5,2,9,0.00
2012-6-5,63,56,49,51,39,31,92,56,32,0.00,40.00,12,5,21,0.00
2012-6-6,66,55,46,34,32,30,58,42,27,0.00,40.00,7,5,17,0.00
2012-6-7,55,47,40,48,41,34,89,78,60,0.00,40.00,6,3,13,0.00
2012-6-8,68,54,41,43,37,31,92,59,29,0.00,40.00,6,4,12,0.00
2012-6-9,63,54,42,39,35,32,73,50,37,0.00,40.00,13,6,24,0.00
2012-6-10,76,62,48,45,39,35,65,44,29,0.00,40.00,9,5,14,0.00
2012-6-11,81,63,46,47,41,36,70,47,27,0.00,40.00,9,4,14,0.00
2012-6-12,78,68,60,51,48,45,64,50,38,0.00,40.00,7,5,15,0.00
2012-6-13,74,64,51,46,42,36,59,45,33,0.00,40.00,7,5,20,0.00
2012-6-14,78,59,47,45,39,34,68,49,31,0.00,40.00,9,5,21,0.00
2012-6-15,83,61,43,45,39,34,73,48,24,0.00,40.00,9,3,16,0.00
2012-6-16,86,68,58,58,47,-100,64,51,38,0.00,40.00,9,5,14,0.00
2012-6-17,80,67,55,52,47,40,83,51,30,0.00,40.00,8,4,17,0.00
2012-6-18,73,61,53,43,40,37,61,46,31,0.00,40.00,13,6,22,0.00
2012-6-19,76,60,46,43,40,37,76,49,30,0.00,40.00,10,5,17,0.00
2012-6-20,76,65,46,49,43,39,79,48,29,0.00,40.00,13,4,18,0.00
2012-6-21,87,65,52,52,46,40,68,51,29,0.00,40.00,6,3,9,0.00
2012-6-22,73,66,56,56,53,49,89,64,49,0.00,40.00,6,4,13,0.00
2012-6-23,70,60,53,56,49,40,89,69,45,0.00,40.00,10,3,15,0.00
2012-6-24,75,59,50,52,44,41,79,60,33,0.00,40.00,7,4,13,0.00
2012-6-25,73,59,50,47,44,42,76,58,36,0.00,40.00,9,4,15,0.00
2012-6-26,61,56,52,49,44,39,83,64,47,0.00,40.00,7,3,12,0.00
2012-6-27,76,62,45,47,41,38,76,51,29,0.00,40.00,10,5,14,0.00
2012-6-28,85,68,49,54,47,42,79,50,26,0.00,40.00,7,3,13,0.00
2012-6-29,83,70,56,58,51,48,74,54,35,0.00,40.00,6,4,13,0.00
2012-6-30,87,73,61,61,55,51,75,55,34,0.00,40.00,7,4,13,0.00
2012-7-1,83,71,58,54,49,40,77,49,29,0.00,40.00,7,4,15,0.00
2012-7-2,84,65,52,49,37,-100,71,41,27,0.00,40.00,10,-48,16,0.00
2012-7-3,72,63,54,47,43,40,71,50,33,0.00,40.00,8,4,20,0.00
2012-7-4,77,62,46,47,43,39,79,53,29,0.00,40.00,6,4,16,0.00
2012-7-5,89,69,50,53,47,41,76,49,25,0.00,40.00,7,3,15,0.00
2012-7-6,93,71,53,59,50,45,74,51,25,0.00,40.00,9,3,15,0.00
2012-7-7,97,75,59,63,53,49,69,49,26,0.00,40.00,10,4,17,0.00
2012-7-8,103,77,61,67,56,51,69,50,25,0.00,40.00,6,3,13,0.00
2012-7-9,100,82,65,65,59,52,84,51,25,0.00,40.00,9,4,15,0.00
2012-7-10,99,81,66,56,53,47,65,40,24,0.00,40.00,10,6,14,0.00
2012-7-11,101,77,60,58,51,45,59,43,23,0.00,40.00,9,4,16,0.00
2012-7-12,97,78,63,62,56,52,67,49,29,0.00,40.00,10,6,17,0.00
2012-7-13,97,80,66,64,59,56,75,50,32,0.00,40.00,9,4,14,0.00
2012-7-14,95,77,65,64,60,56,78,58,34,0.00,40.00,12,4,20,0.00
2012-7-15,89,76,64,60,55,49,77,52,28,0.00,40.00,9,5,17,0.00
2012-7-16,93,73,57,64,56,49,89,59,32,0.00,40.00,6,2,10,0.00
2012-7-17,91,76,66,64,60,56,90,62,33,0.00,40.00,7,3,18,0.00
2012-7-18,95,79,64,61,56,46,78,50,25,0.00,40.00,13,5,18,0.00
2012-7-19,97,78,60,68,56,49,72,49,25,0.00,40.00,7,3,15,0.00
2012-7-20,78,67,66,61,47,-100,67,55,43,0.00,40.00,9,-55,14,0.00
2012-7-21,88,69,54,54,52,50,86,57,31,0.00,40.00,7,4,15,0.00
2012-7-22,88,70,57,55,50,39,80,52,30,0.00,40.00,10,5,17,0.00
2012-7-23,79,64,54,49,43,38,55,46,34,0.00,40.00,7,4,17,0.00
2012-7-24,89,69,51,55,49,44,76,52,30,0.00,40.00,7,3,13,0.00
2012-7-25,92,74,59,58,53,49,72,49,30,0.00,40.00,9,4,13,0.00
2012-7-26,93,76,61,62,56,51,74,52,32,0.00,40.00,10,4,15,0.00
2012-7-27,91,75,61,58,54,45,80,52,28,0.00,40.00,9,5,14,0.00
2012-7-28,91,73,56,53,49,46,69,44,24,0.00,40.00,8,5,16,0.00
2012-7-29,94,74,56,57,52,48,74,50,28,0.00,40.00,10,4,15,0.00
2012-7-30,91,72,60,58,53,48,74,53,29,0.00,40.00,7,5,15,0.00
2012-7-31,91,80,68,54,50,44,52,35,27,0.00,40.00,6,4,14,0.00
2012-8-1,94,72,55,55,48,43,63,44,25,0.00,40.00,10,5,18,0.00
2012-8-2,90,74,65,59,50,46,56,43,33,0.00,40.00,7,5,20,0.00
2012-8-3,89,69,55,56,50,46,71,55,28,0.00,40.00,7,4,12,0.00
2012-8-4,96,72,58,63,52,46,66,51,30,0.00,40.00,6,3,12,0.00
2012-8-5,84,68,61,61,54,51,69,59,45,0.00,40.00,5,3,13,0.00
2012-8-6,98,82,71,67,60,53,63,49,29,0.00,40.00,6,4,10,0.00
2012-8-7,100,77,62,67,56,50,64,50,27,0.00,40.00,12,4,15,0.00
2012-8-8,93,78,69,59,55,47,63,47,29,0.00,40.00,7,5,17,0.00
2012-8-9,92,70,55,57,50,46,71,52,28,0.00,40.00,12,5,17,0.00
2012-8-10,95,73,57,58,51,45,64,48,27,0.00,40.00,12,6,15,0.00
2012-8-11,95,70,58,63,48,-100,66,53,28,0.00,40.00,10,6,16,0.00
2012-8-12,97,76,60,66,55,48,67,49,29,0.00,40.00,10,5,14,0.00
2012-8-13,101,78,63,61,53,49,62,45,22,0.00,40.00,9,5,18,0.00
2012-8-14,96,76,64,65,51,42,47,40,32,0.00,40.00,8,5,17,0.00
2012-8-15,92,78,65,59,55,48,70,45,31,0.00,40.00,5,3,9,0.00
2012-8-16,93,71,58,59,52,47,66,53,29,0.00,40.00,9,3,12,0.00
2012-8-17,94,74,62,64,55,50,69,52,34,0.00,40.00,9,4,14,0.00
2012-8-18,97,76,61,64,56,50,67,50,32,0.00,40.00,9,4,15,0.00
2012-8-19,99,77,64,66,55,50,64,47,31,0.00,40.00,9,5,15,0.00
2012-8-20,93,73,61,56,52,48,64,48,27,0.00,40.00,9,4,15,0.00
2012-8-21,94,71,61,59,50,45,59,49,30,0.00,40.00,9,5,17,0.00
2012-8-22,83,69,56,55,48,43,61,48,36,0.00,40.00,7,4,14,0.00
2012-8-23,81,63,54,51,46,41,71,54,34,0.00,40.00,7,5,22,0.00
2012-8-24,81,63,50,50,44,37,63,50,32,0.00,40.00,9,4,14,0.00
2012-8-25,82,61,48,52,45,40,76,57,33,0.00,40.00,9,4,12,0.00
2012-8-26,89,68,48,56,48,39,73,51,30,0.00,40.00,6,4,13,0.00
2012-8-27,90,72,57,55,51,47,69,49,30,0.00,40.00,7,4,14,0.00
2012-8-28,89,67,57,60,50,44,69,55,37,0.00,40.00,9,4,17,0.00
2012-8-29,81,63,51,51,45,41,68,52,35,0.00,40.00,8,4,14,0.00
2012-8-30,78,62,48,52,47,43,82,60,38,0.00,40.00,9,4,13,0.00
2012-8-31,87,64,54,51,46,40,77,55,26,0.00,40.00,9,5,14,0.00
2012-9-1,83,62,50,51,42,37,63,48,32,0.00,40.00,9,5,17,0.00
2012-9-2,86,66,53,53,46,41,64,50,31,0.00,40.00,6,5,14,0.00
2012-9-3,88,65,51,55,47,42,73,55,31,0.00,40.00,9,5,15,0.00
2012-9-4,84,64,52,56,50,45,79,60,35,0.00,40.00,9,4,14,0.00
2012-9-5,86,67,52,56,50,45,79,57,34,0.00,40.00,7,3,12,0.00
2012-9-6,87,63,51,54,48,43,82,62,29,0.00,40.00,6,2,12,0.00
2012-9-7,85,62,49,54,45,40,71,55,32,0.00,40.00,7,4,12,0.00
2012-9-10,66,60,51,39,36,33,49,40,31,0.00,40.00,13,7,27,0.00
2012-9-11,67,55,42,41,36,32,67,50,33,0.00,40.00,7,4,15,0.00
2012-9-12,70,55,42,48,39,34,73,56,33,0.00,40.00,9,3,15,0.00
2012-9-13,78,59,42,49,40,33,70,52,31,0.00,40.00,6,3,14,0.00
2012-9-14,78,59,46,54,43,37,70,56,37,0.00,40.00,7,3,15,0.00
2012-9-15,89,66,54,53,44,41,63,48,24,0.00,40.00,7,5,15,0.00
2012-9-16,82,64,53,55,46,38,66,53,36,0.00,40.00,10,4,15,0.00
2012-9-17,85,63,51,56,47,42,71,57,30,0.00,40.00,6,3,9,0.00
2012-9-18,77,66,55,54,49,43,66,54,40,0.00,40.00,7,4,15,0.00
2012-9-19,82,63,51,51,45,39,66,52,31,0.00,40.00,9,5,17,0.00
2012-9-20,74,60,49,56,46,38,72,58,46,0.00,40.00,7,4,12,0.00
2012-9-21,80,62,51,59,48,42,71,61,42,0.00,40.00,10,3,12,0.00
2012-9-22,76,62,55,53,44,-100,69,56,44,0.00,40.00,10,7,21,0.00
2012-9-23,79,62,50,55,49,44,82,65,43,0.00,40.00,9,3,13,0.00
2012-9-24,74,61,46,55,49,44,92,68,42,0.00,40.00,7,3,12,0.00
2012-9-25,81,67,53,47,44,40,71,46,27,0.00,40.00,9,5,15,0.00
2012-9-26,78,61,47,50,45,39,76,57,35,0.00,40.00,10,4,15,0.00
2012-9-27,77,61,48,52,46,40,76,59,38,0.00,40.00,6,3,10,0.00
2012-9-28,73,57,47,56,47,42,82,70,49,0.00,40.00,7,2,10,0.00
2012-9-29,80,66,57,56,46,40,71,50,31,0.00,40.00,7,4,14,0.00
2012-9-30,80,60,48,44,39,36,65,48,23,0.00,40.00,8,5,17,0.00
2012-10-1,83,65,49,53,46,37,68,50,35,0.00,40.00,13,5,25,0.00
2012-10-2,73,60,42,50,38,28,59,44,25,0.00,40.00,7,4,22,0.00
2012-10-3,67,47,31,35,29,23,71,52,30,0.00,40.00,7,2,13,0.00
2012-10-4,66,46,31,37,30,25,81,56,29,0.00,40.00,6,3,10,0.00
2012-10-5,67,46,29,36,29,24,84,55,26,0.00,40.00,6,2,9,0.00
2012-10-6,67,45,30,37,30,24,78,56,31,0.00,40.00,7,3,12,0.00
2012-10-7,68,49,35,39,33,26,72,54,30,0.00,40.00,7,4,10,0.00
2012-10-8,73,52,35,44,37,29,81,59,33,0.00,40.00,7,3,9,0.00
2012-10-9,74,57,44,47,42,38,82,60,36,0.00,40.00,7,4,12,0.00
2012-10-10,73,55,44,48,42,38,85,62,38,0.00,40.00,9,4,13,0.00
2012-10-11,73,56,42,46,40,35,79,58,36,0.00,40.00,9,4,13,0.00
2012-10-12,69,54,44,47,42,37,79,64,43,0.00,40.00,7,3,10,0.00
2012-10-13,73,57,49,54,49,46,92,76,39,0.00,40.00,6,2,10,0.00
2012-10-14,66,58,54,55,52,49,92,82,60,0.00,40.00,6,2,9,0.00
2012-10-15,69,57,50,53,48,40,89,75,38,0.00,40.00,5,2,9,0.00
2012-10-16,58,51,44,51,38,27,89,66,30,0.00,40.00,14,6,35,0.00
2012-10-17,64,48,36,37,33,30,81,59,27,0.00,40.00,7,3,15,0.00
2012-10-18,61,52,38,39,35,32,88,55,33,0.00,40.00,6,3,9,0.00
2012-10-19,69,54,45,47,42,34,92,68,37,0.00,40.00,6,3,12,0.00
2012-10-20,55,46,36,37,29,18,82,55,23,0.00,40.00,9,4,24,0.00
2012-10-21,50,39,28,33,28,25,92,68,40,0.00,40.00,7,3,12,0.00
2012-10-22,40,38,35,37,35,31,92,88,81,0.00,40.00,5,1,7,0.00
2012-10-23,55,42,35,37,35,32,92,77,41,0.00,40.00,9,2,12,0.00
2012-10-24,42,40,37,38,36,34,92,86,76,0.00,40.00,2,1,3,0.00
2012-10-25,54,46,37,35,32,29,76,59,41,0.00,40.00,6,2,9,0.00
2012-10-26,41,39,37,38,36,34,88,86,75,0.00,40.00,6,1,7,0.00
2012-10-27,44,40,37,38,36,34,92,86,73,0.00,40.00,3,1,7,0.00
2012-10-28,54,44,37,45,40,35,92,86,63,0.00,40.00,5,2,7,0.00
2012-10-29,72,54,45,48,42,34,92,69,29,0.00,40.00,8,2,13,0.00
2012-10-30,56,50,47,50,46,41,92,83,66,0.00,40.00,5,1,9,0.00
2012-10-31,54,52,50,50,48,46,92,88,83,0.00,40.00,3,1,7,0.00
2012-11-1,57,50,46,48,44,42,92,81,57,0.00,40.00,9,3,13,0.00
2012-11-2,53,47,40,45,42,37,92,80,63,0.00,40.00,7,2,9,0.00
2012-11-3,57,50,46,48,45,43,92,82,61,0.00,40.00,5,1,6,0.00
2012-11-4,63,54,49,49,46,44,89,75,51,0.00,40.00,7,3,12,0.00
2012-11-5,64,54,46,49,41,33,92,64,31,0.00,40.00,8,4,13,0.00
2012-11-6,57,52,44,44,36,32,79,57,38,0.00,40.00,6,3,12,0.00
2012-11-7,54,44,35,36,31,28,81,62,38,0.00,40.00,9,3,13,0.00
2012-11-8,52,39,31,32,29,25,88,69,39,0.00,40.00,6,3,10,0.00
2012-11-9,45,37,30,31,29,27,88,74,53,0.00,40.00,6,3,10,0.00
2012-11-10,39,35,28,31,27,21,88,73,49,0.00,40.00,7,2,12,0.00
2012-11-11,36,31,25,29,25,22,92,80,61,0.00,40.00,7,2,9,0.00
2012-11-12,42,34,31,33,30,29,92,85,64,0.00,40.00,3,1,6,0.00
2012-11-13,38,36,34,33,31,30,92,83,72,0.00,40.00,3,1,5,0.00
2012-11-14,45,37,34,35,30,-100,88,80,65,0.00,40.00,7,2,10,0.00
2012-11-15,38,37,37,35,34,31,92,86,75,0.00,40.00,5,2,8,0.00
2012-11-16,41,38,36,35,34,32,92,83,70,0.00,40.00,3,1,5,0.00
2012-11-17,39,38,36,35,35,33,92,88,85,0.00,40.00,5,2,9,0.00
2012-11-18,44,38,33,39,35,31,96,89,79,0.00,40.00,8,2,10,0.00
2012-11-19,43,42,40,40,39,38,92,90,88,0.00,40.00,7,3,13,0.00
2012-11-20,44,41,37,41,38,33,92,88,82,0.00,40.00,5,3,10,0.00
2012-11-21,49,39,35,39,34,29,92,81,51,0.00,40.00,7,2,10,0.00
2012-11-22,45,38,33,34,31,29,92,78,55,0.00,40.00,9,3,13,0.00
2012-11-23,41,38,37,37,35,33,92,87,79,0.00,40.00,5,1,9,0.00
2012-11-24,48,37,32,41,33,29,96,87,62,0.00,40.00,9,3,13,0.00
2012-11-25,50,35,28,29,27,25,88,73,38,0.00,40.00,7,3,12,0.00
2012-11-26,30,26,22,26,23,20,92,89,84,0.00,40.00,3,1,5,0.00
2012-11-27,37,33,29,29,28,25,92,79,61,0.00,40.00,2,1,3,0.00
2012-11-28,39,34,33,31,29,27,92,80,61,0.00,40.00,3,1,5,0.00
2012-11-29,35,34,32,33,31,30,92,92,88,0.00,40.00,3,0,3,0.00
2012-11-30,40,36,33,37,33,31,92,90,78,0.00,40.00,5,1,6,0.00
2012-12-1,48,40,36,40,36,34,92,85,65,0.00,40.00,6,2,8,0.00
2012-12-2,53,41,37,38,35,28,92,81,40,0.00,40.00,7,2,12,0.00
2012-12-3,51,41,33,41,35,30,92,80,49,0.00,40.00,6,2,10,0.00
2012-12-4,44,41,38,40,38,36,92,88,85,0.00,40.00,5,2,8,0.00
2012-12-5,50,40,35,37,28,20,92,66,31,0.00,40.00,7,3,12,0.00
2012-12-6,38,34,32,33,30,28,92,85,78,0.00,40.00,5,2,8,0.00
2012-12-7,36,34,32,34,31,26,92,89,66,0.00,40.00,7,3,13,0.00
2012-12-8,33,33,33,30,30,30,88,88,88,0.00,40.00,3,2,8,0.00
2012-12-11,36,34,33,31,30,29,92,85,78,0.00,40.00,6,2,7,0.00
2012-12-12,37,34,32,34,31,29,92,88,78,0.00,40.00,3,1,7,0.00
2012-12-13,35,32,28,30,27,24,92,80,63,0.00,40.00,6,2,10,0.00
2012-12-14,40,33,30,32,28,23,92,82,61,0.00,40.00,6,2,12,0.00
2012-12-15,32,30,28,29,26,22,92,84,74,0.00,40.00,6,2,12,0.00
2012-12-16,34,30,25,29,26,21,92,85,69,0.00,40.00,7,2,13,0.00
2012-12-17,42,33,28,34,29,23,92,86,69,0.00,40.00,5,1,10,0.00
2012-12-18,40,26,18,24,20,14,88,78,50,0.00,40.00,7,3,9,0.00
2012-12-19,26,23,15,23,19,11,88,86,83,0.00,40.00,1,0,2,0.00
2012-12-20,34,29,26,29,26,23,92,86,78,0.00,40.00,5,1,7,0.00
2012-12-21,32,28,23,28,24,19,92,86,81,0.00,40.00,6,2,10,0.00
2012-12-22,35,32,30,32,30,28,92,91,88,0.00,40.00,5,1,6,0.00
2012-12-23,35,33,32,33,30,29,92,90,85,0.00,40.00,2,0,5,0.00
2012-12-24,44,32,25,31,28,22,92,84,55,0.00,40.00,7,3,13,0.00
2012-12-25,32,29,25,30,26,22,95,91,88,0.00,40.00,2,0,3,0.00
2012-12-26,39,32,29,34,29,27,95,89,72,0.00,40.00,3,0,3,0.00
2012-12-27,36,32,29,30,29,27,92,86,72,0.00,40.00,3,1,6,0.00
2012-12-28,33,31,29,28,25,23,84,77,66,0.00,40.00,5,1,7,0.00
2012-12-29,32,29,26,25,24,22,92,79,66,0.00,40.00,5,1,7,0.00
2012-12-30,34,28,22,25,23,19,92,81,56,0.00,40.00,6,3,10,0.00
2012-12-31,29,27,26,24,21,19,92,80,65,0.00,40.00,6,2,10,0.00
2013-1-1,29,26,25,21,18,16,81,71,60,0.00,40.00,6,2,9,0.00